sensor_id;sensor_type;location;lat;lon;timestamp;pressure;altitude;pressure_sealevel;temperature;humidity
7157;BME280;3620;49.862;8.758;2022-09-13T00:01:01;98855.91;;;18.32;79.86
7157;BME280;3620;49.862;8.758;2022-09-13T00:03:29;98857.84;;;18.30;79.73
7157;BME280;3620;49.862;8.758;2022-09-13T00:05:56;98850.00;;;18.28;80.07
7157;BME280;3620;49.862;8.758;2022-09-13T00:08:24;98849.34;;;18.36;79.51
7157;BME280;3620;49.862;8.758;2022-09-13T00:10:50;98843.31;;;18.34;79.56
7157;BME280;3620;49.862;8.758;2022-09-13T00:13:17;98836.31;;;18.33;79.26
7157;BME280;3620;49.862;8.758;2022-09-13T00:15:44;98833.88;;;18.30;79.81
7157;BME280;3620;49.862;8.758;2022-09-13T00:18:12;98831.75;;;18.24;80.23
7157;BME280;3620;49.862;8.758;2022-09-13T00:20:40;98828.22;;;18.23;80.31
7157;BME280;3620;49.862;8.758;2022-09-13T00:23:07;98824.72;;;18.23;80.04
7157;BME280;3620;49.862;8.758;2022-09-13T00:25:34;98823.28;;;18.19;79.84
7157;BME280;3620;49.862;8.758;2022-09-13T00:28:01;98828.34;;;18.22;80.22
7157;BME280;3620;49.862;8.758;2022-09-13T00:30:28;98825.69;;;18.22;80.12
7157;BME280;3620;49.862;8.758;2022-09-13T00:32:55;98832.03;;;18.10;80.49
7157;BME280;3620;49.862;8.758;2022-09-13T00:35:22;98836.88;;;18.05;80.68
7157;BME280;3620;49.862;8.758;2022-09-13T00:37:50;98833.25;;;18.06;80.83
7157;BME280;3620;49.862;8.758;2022-09-13T00:40:17;98830.81;;;18.03;80.51
7157;BME280;3620;49.862;8.758;2022-09-13T00:42:44;98816.94;;;17.99;80.72
7157;BME280;3620;49.862;8.758;2022-09-13T00:45:15;98820.69;;;17.97;80.58
7157;BME280;3620;49.862;8.758;2022-09-13T00:47:46;98812.59;;;17.87;80.87
7157;BME280;3620;49.862;8.758;2022-09-13T00:50:17;98808.38;;;17.85;81.02
7157;BME280;3620;49.862;8.758;2022-09-13T00:52:48;98811.75;;;17.87;80.93
7157;BME280;3620;49.862;8.758;2022-09-13T00:55:21;98810.47;;;17.70;81.95
7157;BME280;3620;49.862;8.758;2022-09-13T00:57:50;98810.81;;;17.77;81.83
7157;BME280;3620;49.862;8.758;2022-09-13T01:00:18;98820.50;;;17.89;81.71
7157;BME280;3620;49.862;8.758;2022-09-13T01:02:48;98814.78;;;17.82;81.71
7157;BME280;3620;49.862;8.758;2022-09-13T01:05:21;98808.75;;;17.80;81.80
7157;BME280;3620;49.862;8.758;2022-09-13T01:07:50;98804.94;;;17.73;82.10
7157;BME280;3620;49.862;8.758;2022-09-13T01:10:18;98804.06;;;17.73;82.55
7157;BME280;3620;49.862;8.758;2022-09-13T01:15:19;98787.25;;;17.72;82.32
7157;BME280;3620;49.862;8.758;2022-09-13T01:17:46;98783.03;;;17.70;82.43
7157;BME280;3620;49.862;8.758;2022-09-13T01:20:13;98778.56;;;17.70;82.38
7157;BME280;3620;49.862;8.758;2022-09-13T01:23:11;98778.91;;;17.77;81.55
7157;BME280;3620;49.862;8.758;2022-09-13T01:26:03;98772.91;;;17.64;81.79
7157;BME280;3620;49.862;8.758;2022-09-13T01:29:14;98788.00;;;17.63;81.76
7157;BME280;3620;49.862;8.758;2022-09-13T01:31:51;98793.56;;;17.60;82.25
7157;BME280;3620;49.862;8.758;2022-09-13T01:34:27;98787.88;;;17.65;81.60
7157;BME280;3620;49.862;8.758;2022-09-13T01:37:26;98794.19;;;17.52;82.60
7157;BME280;3620;49.862;8.758;2022-09-13T01:40:03;98789.59;;;17.54;82.67
7157;BME280;3620;49.862;8.758;2022-09-13T01:42:41;98791.28;;;17.55;82.36
7157;BME280;3620;49.862;8.758;2022-09-13T01:45:20;98812.81;;;17.52;82.43
7157;BME280;3620;49.862;8.758;2022-09-13T01:47:55;98817.84;;;17.67;82.07
7157;BME280;3620;49.862;8.758;2022-09-13T01:50:31;98802.31;;;17.51;82.32
7157;BME280;3620;49.862;8.758;2022-09-13T01:53:04;98790.06;;;17.60;82.30
7157;BME280;3620;49.862;8.758;2022-09-13T01:55:38;98769.53;;;17.39;83.19
7157;BME280;3620;49.862;8.758;2022-09-13T01:58:15;98756.69;;;17.44;82.88
7157;BME280;3620;49.862;8.758;2022-09-13T02:00:48;98757.84;;;17.74;81.20
7157;BME280;3620;49.862;8.758;2022-09-13T02:03:23;98755.50;;;17.60;82.02
7157;BME280;3620;49.862;8.758;2022-09-13T02:05:56;98751.63;;;17.41;82.46
7157;BME280;3620;49.862;8.758;2022-09-13T02:08:32;98758.28;;;17.36;82.74
7157;BME280;3620;49.862;8.758;2022-09-13T02:11:05;98768.56;;;17.29;83.11
7157;BME280;3620;49.862;8.758;2022-09-13T02:13:35;98751.88;;;17.27;83.33
7157;BME280;3620;49.862;8.758;2022-09-13T02:16:08;98751.16;;;17.25;83.39
7157;BME280;3620;49.862;8.758;2022-09-13T02:18:40;98775.31;;;17.33;82.86
7157;BME280;3620;49.862;8.758;2022-09-13T02:21:11;98787.78;;;17.33;82.47
7157;BME280;3620;49.862;8.758;2022-09-13T02:23:43;98795.88;;;17.20;82.43
7157;BME280;3620;49.862;8.758;2022-09-13T02:26:13;98796.13;;;17.17;82.83
7157;BME280;3620;49.862;8.758;2022-09-13T02:28:44;98789.84;;;17.07;83.53
7157;BME280;3620;49.862;8.758;2022-09-13T02:31:17;98786.47;;;17.05;83.80
7157;BME280;3620;49.862;8.758;2022-09-13T02:33:50;98790.09;;;17.04;84.17
7157;BME280;3620;49.862;8.758;2022-09-13T02:36:22;98793.94;;;17.00;84.30
7157;BME280;3620;49.862;8.758;2022-09-13T02:38:51;98798.19;;;17.03;84.34
7157;BME280;3620;49.862;8.758;2022-09-13T02:41:23;98803.84;;;17.09;83.67
7157;BME280;3620;49.862;8.758;2022-09-13T02:43:56;98807.00;;;17.14;83.60
7157;BME280;3620;49.862;8.758;2022-09-13T02:46:31;98804.72;;;17.10;83.75
7157;BME280;3620;49.862;8.758;2022-09-13T02:49:11;98813.31;;;17.24;83.38
7157;BME280;3620;49.862;8.758;2022-09-13T02:51:44;98812.53;;;17.33;82.91
7157;BME280;3620;49.862;8.758;2022-09-13T02:54:23;98804.09;;;17.28;83.06
7157;BME280;3620;49.862;8.758;2022-09-13T02:56:55;98808.22;;;17.21;83.32
7157;BME280;3620;49.862;8.758;2022-09-13T02:59:24;98805.78;;;17.29;83.06
7157;BME280;3620;49.862;8.758;2022-09-13T03:01:55;98807.72;;;17.27;82.98
7157;BME280;3620;49.862;8.758;2022-09-13T03:04:26;98804.84;;;17.19;83.22
7157;BME280;3620;49.862;8.758;2022-09-13T03:06:52;98811.47;;;17.25;82.89
7157;BME280;3620;49.862;8.758;2022-09-13T03:09:19;98799.03;;;17.25;82.64
7157;BME280;3620;49.862;8.758;2022-09-13T03:11:56;98809.44;;;17.28;82.69
7157;BME280;3620;49.862;8.758;2022-09-13T03:14:36;98807.50;;;17.30;82.52
7157;BME280;3620;49.862;8.758;2022-09-13T03:17:14;98808.44;;;17.29;82.48
7157;BME280;3620;49.862;8.758;2022-09-13T03:20:05;98803.84;;;17.31;82.41
7157;BME280;3620;49.862;8.758;2022-09-13T03:22:48;98798.28;;;17.34;82.71
7157;BME280;3620;49.862;8.758;2022-09-13T03:25:26;98792.03;;;17.13;83.95
7157;BME280;3620;49.862;8.758;2022-09-13T03:28:02;98792.97;;;17.34;83.23
7157;BME280;3620;49.862;8.758;2022-09-13T03:30:35;98788.63;;;17.22;83.13
7157;BME280;3620;49.862;8.758;2022-09-13T03:33:06;98780.41;;;17.25;83.37
7157;BME280;3620;49.862;8.758;2022-09-13T03:35:40;98773.41;;;17.58;82.16
7157;BME280;3620;49.862;8.758;2022-09-13T03:38:11;98772.66;;;17.55;82.24
7157;BME280;3620;49.862;8.758;2022-09-13T03:40:42;98764.66;;;17.55;82.45
7157;BME280;3620;49.862;8.758;2022-09-13T03:43:12;98769.28;;;17.53;82.95
7157;BME280;3620;49.862;8.758;2022-09-13T03:45:43;98761.06;;;17.56;82.80
7157;BME280;3620;49.862;8.758;2022-09-13T03:48:12;98760.81;;;17.60;82.38
7157;BME280;3620;49.862;8.758;2022-09-13T03:50:41;98756.69;;;17.44;82.20
7157;BME280;3620;49.862;8.758;2022-09-13T03:53:13;98765.88;;;17.40;82.93
7157;BME280;3620;49.862;8.758;2022-09-13T03:55:42;98765.88;;;17.40;83.14
7157;BME280;3620;49.862;8.758;2022-09-13T03:58:11;98766.16;;;17.37;83.39
7157;BME280;3620;49.862;8.758;2022-09-13T04:00:37;98762.41;;;17.40;83.80
7157;BME280;3620;49.862;8.758;2022-09-13T04:03:05;98758.03;;;17.39;83.74
7157;BME280;3620;49.862;8.758;2022-09-13T04:05:32;98760.56;;;17.40;83.36
7157;BME280;3620;49.862;8.758;2022-09-13T04:08:01;98762.28;;;17.41;82.87
7157;BME280;3620;49.862;8.758;2022-09-13T04:10:28;98753.06;;;17.45;82.56
7157;BME280;3620;49.862;8.758;2022-09-13T04:12:56;98757.91;;;17.51;81.91
7157;BME280;3620;49.862;8.758;2022-09-13T04:15:23;98759.81;;;17.49;81.58
7157;BME280;3620;49.862;8.758;2022-09-13T04:17:50;98756.69;;;17.44;81.88
7157;BME280;3620;49.862;8.758;2022-09-13T04:20:16;98755.00;;;17.43;82.38
7157;BME280;3620;49.862;8.758;2022-09-13T04:22:50;98749.94;;;17.40;82.16
7157;BME280;3620;49.862;8.758;2022-09-13T04:25:18;98759.13;;;17.36;82.37
7157;BME280;3620;49.862;8.758;2022-09-13T04:27:44;98753.81;;;17.36;82.32
7157;BME280;3620;49.862;8.758;2022-09-13T04:30:12;98754.88;;;17.45;81.78
7157;BME280;3620;49.862;8.758;2022-09-13T04:32:41;98759.81;;;17.49;82.14
7157;BME280;3620;49.862;8.758;2022-09-13T04:35:08;98755.25;;;17.40;82.08
7157;BME280;3620;49.862;8.758;2022-09-13T04:37:35;98755.88;;;17.44;82.22
7157;BME280;3620;49.862;8.758;2022-09-13T04:40:03;98755.16;;;17.53;81.94
7157;BME280;3620;49.862;8.758;2022-09-13T04:42:31;98749.69;;;17.43;82.35
7157;BME280;3620;49.862;8.758;2022-09-13T04:44:58;98748.47;;;17.47;82.33
7157;BME280;3620;49.862;8.758;2022-09-13T04:47:24;98755.59;;;17.47;82.64
7157;BME280;3620;49.862;8.758;2022-09-13T04:49:51;98751.63;;;17.41;82.82
7157;BME280;3620;49.862;8.758;2022-09-13T04:52:18;98753.81;;;17.36;83.37
7157;BME280;3620;49.862;8.758;2022-09-13T04:54:44;98760.56;;;17.40;83.29
7157;BME280;3620;49.862;8.758;2022-09-13T04:57:12;98762.28;;;17.52;82.77
7157;BME280;3620;49.862;8.758;2022-09-13T04:59:40;98766.59;;;17.42;83.03
7157;BME280;3620;49.862;8.758;2022-09-13T05:02:07;98771.91;;;17.42;82.58
7157;BME280;3620;49.862;8.758;2022-09-13T05:04:33;98764.69;;;17.33;82.78
7157;BME280;3620;49.862;8.758;2022-09-13T05:07:00;98784.03;;;17.35;82.83
7157;BME280;3620;49.862;8.758;2022-09-13T05:09:27;98780.63;;;17.33;83.09
7157;BME280;3620;49.862;8.758;2022-09-13T05:11:53;98780.38;;;17.47;82.76
7157;BME280;3620;49.862;8.758;2022-09-13T05:14:20;98784.28;;;17.32;83.46
7157;BME280;3620;49.862;8.758;2022-09-13T05:16:49;98794.19;;;17.52;82.97
7157;BME280;3620;49.862;8.758;2022-09-13T05:19:15;98789.59;;;17.54;83.15
7157;BME280;3620;49.862;8.758;2022-09-13T05:21:42;98790.56;;;17.53;83.51
7157;BME280;3620;49.862;8.758;2022-09-13T05:24:09;98791.28;;;17.55;83.36
7157;BME280;3620;49.862;8.758;2022-09-13T05:26:36;98793.31;;;17.63;83.39
7157;BME280;3620;49.862;8.758;2022-09-13T05:29:03;98784.75;;;17.60;83.72
7157;BME280;3620;49.862;8.758;2022-09-13T05:31:31;98779.88;;;17.65;83.60
7157;BME280;3620;49.862;8.758;2022-09-13T05:34:02;98791.72;;;17.72;83.48
7157;BME280;3620;49.862;8.758;2022-09-13T05:36:29;98791.50;;;17.75;83.38
7157;BME280;3620;49.862;8.758;2022-09-13T05:38:56;98793.44;;;17.73;83.54
7157;BME280;3620;49.862;8.758;2022-09-13T05:41:23;98799.22;;;17.67;84.12
7157;BME280;3620;49.862;8.758;2022-09-13T05:43:50;98800.94;;;17.68;84.64
7157;BME280;3620;49.862;8.758;2022-09-13T05:46:18;98794.00;;;17.76;84.54
7157;BME280;3620;49.862;8.758;2022-09-13T05:48:46;98796.56;;;17.78;85.02
7157;BME280;3620;49.862;8.758;2022-09-13T05:51:17;98802.56;;;17.91;84.49
7157;BME280;3620;49.862;8.758;2022-09-13T05:53:45;98800.88;;;17.90;84.52
7157;BME280;3620;49.862;8.758;2022-09-13T05:56:14;98796.13;;;17.93;84.88
7157;BME280;3620;49.862;8.758;2022-09-13T05:58:43;98795.03;;;17.96;84.52
7157;BME280;3620;49.862;8.758;2022-09-13T06:01:11;98813.00;;;17.72;85.78
7157;BME280;3620;49.862;8.758;2022-09-13T06:03:38;98810.81;;;17.88;85.03
7157;BME280;3620;49.862;8.758;2022-09-13T06:06:06;98804.75;;;17.86;85.08
7157;BME280;3620;49.862;8.758;2022-09-13T06:08:34;98811.28;;;17.93;84.90
7157;BME280;3620;49.862;8.758;2022-09-13T06:11:03;98792.09;;;18.10;84.69
7157;BME280;3620;49.862;8.758;2022-09-13T06:13:31;98794.75;;;18.10;85.10
7157;BME280;3620;49.862;8.758;2022-09-13T06:15:59;98794.69;;;18.21;84.88
7157;BME280;3620;49.862;8.758;2022-09-13T06:18:27;98789.63;;;18.18;85.40
7157;BME280;3620;49.862;8.758;2022-09-13T06:20:57;98779.44;;;18.23;85.16
7157;BME280;3620;49.862;8.758;2022-09-13T06:23:24;98788.22;;;18.35;84.42
7157;BME280;3620;49.862;8.758;2022-09-13T06:26:00;98782.75;;;18.36;83.47
7157;BME280;3620;49.862;8.758;2022-09-13T06:28:26;98795.38;;;18.34;82.15
7157;BME280;3620;49.862;8.758;2022-09-13T06:30:58;98784.72;;;18.34;82.29
7157;BME280;3620;49.862;8.758;2022-09-13T06:33:25;98792.50;;;18.26;82.97
7157;BME280;3620;49.862;8.758;2022-09-13T06:35:52;98792.50;;;18.26;83.23
7157;BME280;3620;49.862;8.758;2022-09-13T06:38:18;98787.84;;;18.39;83.91
7157;BME280;3620;49.862;8.758;2022-09-13T06:40:45;98794.59;;;18.43;83.25
7157;BME280;3620;49.862;8.758;2022-09-13T06:43:13;98800.94;;;18.31;83.18
7157;BME280;3620;49.862;8.758;2022-09-13T06:45:40;98791.75;;;18.35;82.79
7157;BME280;3620;49.862;8.758;2022-09-13T06:48:07;98793.31;;;18.38;82.83
7157;BME280;3620;49.862;8.758;2022-09-13T06:50:33;98787.22;;;18.36;83.45
7157;BME280;3620;49.862;8.758;2022-09-13T06:53:00;98800.44;;;18.37;83.90
7157;BME280;3620;49.862;8.758;2022-09-13T06:55:27;98795.59;;;18.42;84.53
7157;BME280;3620;49.862;8.758;2022-09-13T06:57:53;98794.38;;;18.46;84.74
7157;BME280;3620;49.862;8.758;2022-09-13T07:00:21;98791.91;;;18.54;85.22
7157;BME280;3620;49.862;8.758;2022-09-13T07:02:50;98798.31;;;18.52;86.74
7157;BME280;3620;49.862;8.758;2022-09-13T07:05:16;98806.31;;;18.52;85.83
7157;BME280;3620;49.862;8.758;2022-09-13T07:07:45;98809.38;;;18.47;85.20
7157;BME280;3620;49.862;8.758;2022-09-13T07:10:11;98822.84;;;18.35;86.00
7157;BME280;3620;49.862;8.758;2022-09-13T07:12:39;98820.56;;;18.30;86.51
7157;BME280;3620;49.862;8.758;2022-09-13T07:15:07;98824.28;;;18.39;86.06
7157;BME280;3620;49.862;8.758;2022-09-13T07:17:35;98828.16;;;18.46;85.90
7157;BME280;3620;49.862;8.758;2022-09-13T07:20:02;98828.50;;;18.41;84.39
7157;BME280;3620;49.862;8.758;2022-09-13T07:22:31;98826.72;;;18.62;84.08
7157;BME280;3620;49.862;8.758;2022-09-13T07:24:58;98836.97;;;18.67;83.21
7157;BME280;3620;49.862;8.758;2022-09-13T07:27:26;98839.84;;;18.95;82.38
7157;BME280;3620;49.862;8.758;2022-09-13T07:29:52;98845.38;;;18.83;82.44
7157;BME280;3620;49.862;8.758;2022-09-13T07:32:19;98851.94;;;18.79;82.88
7157;BME280;3620;49.862;8.758;2022-09-13T07:34:49;98848.72;;;18.75;82.86
7157;BME280;3620;49.862;8.758;2022-09-13T07:37:15;98846.22;;;18.83;82.39
7157;BME280;3620;49.862;8.758;2022-09-13T07:39:42;98840.13;;;18.92;82.01
7157;BME280;3620;49.862;8.758;2022-09-13T07:42:09;98836.03;;;18.68;81.69
7157;BME280;3620;49.862;8.758;2022-09-13T07:44:35;98847.78;;;18.65;82.65
7157;BME280;3620;49.862;8.758;2022-09-13T07:47:02;98848.69;;;18.55;83.52
7157;BME280;3620;49.862;8.758;2022-09-13T07:49:29;98835.88;;;18.69;83.58
7157;BME280;3620;49.862;8.758;2022-09-13T07:51:57;98838.06;;;18.75;82.83
7157;BME280;3620;49.862;8.758;2022-09-13T07:54:23;98831.34;;;18.81;82.92
7157;BME280;3620;49.862;8.758;2022-09-13T07:56:50;98826.97;;;19.00;82.63
7157;BME280;3620;49.862;8.758;2022-09-13T07:59:17;98824.25;;;19.21;81.89
7157;BME280;3620;49.862;8.758;2022-09-13T08:01:46;98807.53;;;19.40;81.75
7157;BME280;3620;49.862;8.758;2022-09-13T08:04:14;98797.06;;;19.67;81.29
7157;BME280;3620;49.862;8.758;2022-09-13T08:06:42;98783.47;;;19.70;80.71
7157;BME280;3620;49.862;8.758;2022-09-13T08:09:11;98779.13;;;19.79;81.28
7157;BME280;3620;49.862;8.758;2022-09-13T08:11:39;98785.75;;;19.84;81.38
7157;BME280;3620;49.862;8.758;2022-09-13T08:14:08;98777.03;;;20.01;80.67
7157;BME280;3620;49.862;8.758;2022-09-13T08:16:35;98778.28;;;20.16;81.71
7157;BME280;3620;49.862;8.758;2022-09-13T08:19:04;98781.72;;;20.37;81.67
7157;BME280;3620;49.862;8.758;2022-09-13T08:21:33;98784.63;;;20.54;81.37
7157;BME280;3620;49.862;8.758;2022-09-13T08:24:00;98780.66;;;20.77;81.38
7157;BME280;3620;49.862;8.758;2022-09-13T08:26:30;98779.25;;;20.73;81.79
7157;BME280;3620;49.862;8.758;2022-09-13T08:28:58;98774.31;;;20.78;81.80
7157;BME280;3620;49.862;8.758;2022-09-13T08:31:26;98767.38;;;20.85;80.52
7157;BME280;3620;49.862;8.758;2022-09-13T08:33:54;98772.19;;;20.91;79.79
7157;BME280;3620;49.862;8.758;2022-09-13T08:36:22;98764.81;;;21.12;79.53
7157;BME280;3620;49.862;8.758;2022-09-13T08:38:51;98776.56;;;21.29;78.15
7157;BME280;3620;49.862;8.758;2022-09-13T08:44:26;98785.03;;;21.51;76.07
7157;BME280;3620;49.862;8.758;2022-09-13T08:46:58;98790.34;;;21.88;74.51
7157;BME280;3620;49.862;8.758;2022-09-13T08:49:31;98787.38;;;22.09;73.76
7157;BME280;3620;49.862;8.758;2022-09-13T08:52:04;98801.47;;;22.11;73.95
7157;BME280;3620;49.862;8.758;2022-09-13T08:54:36;98795.03;;;22.04;73.19
7157;BME280;3620;49.862;8.758;2022-09-13T08:57:07;98800.06;;;22.07;73.35
7157;BME280;3620;49.862;8.758;2022-09-13T08:59:52;98799.84;;;22.00;75.68
7157;BME280;3620;49.862;8.758;2022-09-13T09:02:37;98802.50;;;22.18;75.54
7157;BME280;3620;49.862;8.758;2022-09-13T09:05:15;98806.28;;;22.07;76.31
7157;BME280;3620;49.862;8.758;2022-09-13T09:07:45;98808.19;;;22.15;76.29
7157;BME280;3620;49.862;8.758;2022-09-13T09:10:15;98797.94;;;22.28;76.06
7157;BME280;3620;49.862;8.758;2022-09-13T09:12:45;98791.50;;;22.21;76.50
7157;BME280;3620;49.862;8.758;2022-09-13T09:15:18;98793.78;;;22.16;77.01
7157;BME280;3620;49.862;8.758;2022-09-13T09:17:53;98789.44;;;22.15;76.66
7157;BME280;3620;49.862;8.758;2022-09-13T09:20:25;98792.75;;;22.09;76.93
7157;BME280;3620;49.862;8.758;2022-09-13T09:22:54;98797.56;;;21.78;77.72
7157;BME280;3620;49.862;8.758;2022-09-13T09:25:23;98794.31;;;21.57;78.83
7157;BME280;3620;49.862;8.758;2022-09-13T09:27:50;98789.41;;;21.52;79.05
7157;BME280;3620;49.862;8.758;2022-09-13T09:30:19;98798.72;;;21.48;80.94
7157;BME280;3620;49.862;8.758;2022-09-13T09:32:51;98786.91;;;21.41;81.17
7157;BME280;3620;49.862;8.758;2022-09-13T09:35:34;98777.75;;;21.44;81.97
7157;BME280;3620;49.862;8.758;2022-09-13T09:38:25;98780.06;;;21.56;81.93
7157;BME280;3620;49.862;8.758;2022-09-13T09:40:56;98793.09;;;21.69;81.58
7157;BME280;3620;49.862;8.758;2022-09-13T09:43:28;98783.31;;;21.60;82.08
7157;BME280;3620;49.862;8.758;2022-09-13T09:46:02;98791.03;;;21.63;82.35
7157;BME280;3620;49.862;8.758;2022-09-13T09:48:36;98785.91;;;21.69;81.36
7157;BME280;3620;49.862;8.758;2022-09-13T09:51:07;98790.41;;;21.69;81.22
7157;BME280;3620;49.862;8.758;2022-09-13T09:53:39;98787.22;;;21.65;81.38
7157;BME280;3620;49.862;8.758;2022-09-13T09:56:18;98798.59;;;21.67;80.74
7157;BME280;3620;49.862;8.758;2022-09-13T09:58:46;98803.06;;;21.76;80.53
7157;BME280;3620;49.862;8.758;2022-09-13T10:01:18;98803.56;;;21.89;79.44
7157;BME280;3620;49.862;8.758;2022-09-13T10:03:50;98801.59;;;21.92;78.46
7157;BME280;3620;49.862;8.758;2022-09-13T10:06:19;98801.69;;;21.72;79.22
7157;BME280;3620;49.862;8.758;2022-09-13T10:08:57;98806.56;;;21.59;81.34
7157;BME280;3620;49.862;8.758;2022-09-13T10:11:41;98807.44;;;21.50;82.75
7157;BME280;3620;49.862;8.758;2022-09-13T10:14:36;98811.19;;;21.30;84.67
7157;BME280;3620;49.862;8.758;2022-09-13T10:17:14;98800.03;;;21.44;84.30
7157;BME280;3620;49.862;8.758;2022-09-13T10:19:53;98797.03;;;21.47;84.88
7157;BME280;3620;49.862;8.758;2022-09-13T10:22:22;98805.75;;;21.49;83.48
7157;BME280;3620;49.862;8.758;2022-09-13T10:24:49;98813.75;;;21.59;82.46
7157;BME280;3620;49.862;8.758;2022-09-13T10:27:21;98814.06;;;21.73;82.62
7157;BME280;3620;49.862;8.758;2022-09-13T10:29:50;98813.44;;;21.89;82.65
7157;BME280;3620;49.862;8.758;2022-09-13T10:32:21;98804.66;;;21.97;82.74
7157;BME280;3620;49.862;8.758;2022-09-13T10:34:48;98799.78;;;22.10;82.65
7157;BME280;3620;49.862;8.758;2022-09-13T10:37:18;98790.75;;;22.11;82.78
7157;BME280;3620;49.862;8.758;2022-09-13T10:39:58;98794.56;;;21.91;82.01
7157;BME280;3620;49.862;8.758;2022-09-13T10:42:27;98788.88;;;21.94;82.63
7157;BME280;3620;49.862;8.758;2022-09-13T10:44:57;98801.44;;;21.66;80.97
7157;BME280;3620;49.862;8.758;2022-09-13T10:47:30;98805.66;;;21.68;81.11
7157;BME280;3620;49.862;8.758;2022-09-13T10:50:12;98796.84;;;21.85;80.27
7157;BME280;3620;49.862;8.758;2022-09-13T10:52:44;98796.00;;;21.85;80.39
7157;BME280;3620;49.862;8.758;2022-09-13T10:55:33;98793.66;;;22.00;81.30
7157;BME280;3620;49.862;8.758;2022-09-13T10:58:21;98800.78;;;22.26;82.10
7157;BME280;3620;49.862;8.758;2022-09-13T11:07:20;98789.38;;;22.85;81.16
7157;BME280;3620;49.862;8.758;2022-09-13T11:09:55;98787.00;;;23.08;80.20
7157;BME280;3620;49.862;8.758;2022-09-13T11:12:30;98786.56;;;23.20;77.84
7157;BME280;3620;49.862;8.758;2022-09-13T11:15:04;98789.75;;;23.42;76.49
7157;BME280;3620;49.862;8.758;2022-09-13T11:17:55;98796.47;;;23.46;76.91
7157;BME280;3620;49.862;8.758;2022-09-13T11:20:34;98789.16;;;23.64;76.59
7157;BME280;3620;49.862;8.758;2022-09-13T11:23:42;98795.75;;;23.77;75.40
7157;BME280;3620;49.862;8.758;2022-09-13T11:26:29;98782.44;;;23.60;74.42
7157;BME280;3620;49.862;8.758;2022-09-13T11:29:09;98779.00;;;23.50;75.17
7157;BME280;3620;49.862;8.758;2022-09-13T11:31:44;98787.06;;;23.42;75.79
7157;BME280;3620;49.862;8.758;2022-09-13T11:34:23;98792.06;;;23.45;75.72
7157;BME280;3620;49.862;8.758;2022-09-13T11:37:05;98807.69;;;23.15;75.51
7157;BME280;3620;49.862;8.758;2022-09-13T11:39:40;98795.94;;;23.16;75.98
7157;BME280;3620;49.862;8.758;2022-09-13T11:42:26;98807.63;;;23.07;76.54
7157;BME280;3620;49.862;8.758;2022-09-13T11:45:18;98800.06;;;23.03;77.05
7157;BME280;3620;49.862;8.758;2022-09-13T11:48:00;98799.19;;;23.02;77.66
7157;BME280;3620;49.862;8.758;2022-09-13T11:50:35;98791.63;;;23.23;76.60
7157;BME280;3620;49.862;8.758;2022-09-13T11:53:15;98785.78;;;23.28;76.30
7157;BME280;3620;49.862;8.758;2022-09-13T11:55:52;98782.25;;;23.27;75.20
7157;BME280;3620;49.862;8.758;2022-09-13T11:58:23;98775.31;;;23.17;75.34
7157;BME280;3620;49.862;8.758;2022-09-13T12:00:54;98759.44;;;22.98;74.38
7157;BME280;3620;49.862;8.758;2022-09-13T12:03:26;98751.25;;;22.99;74.57
7157;BME280;3620;49.862;8.758;2022-09-13T12:05:59;98755.25;;;22.95;75.86
7157;BME280;3620;49.862;8.758;2022-09-13T12:08:30;98759.97;;;23.01;74.33
7157;BME280;3620;49.862;8.758;2022-09-13T12:11:02;98761.03;;;23.08;74.33
7157;BME280;3620;49.862;8.758;2022-09-13T12:13:35;98750.56;;;23.31;75.52
7157;BME280;3620;49.862;8.758;2022-09-13T12:16:09;98737.38;;;23.46;76.27
7157;BME280;3620;49.862;8.758;2022-09-13T12:18:41;98733.72;;;23.63;74.22
7157;BME280;3620;49.862;8.758;2022-09-13T12:21:11;98735.78;;;23.77;73.62
7157;BME280;3620;49.862;8.758;2022-09-13T12:23:42;98740.53;;;23.91;73.13
7157;BME280;3620;49.862;8.758;2022-09-13T12:26:18;98728.44;;;23.95;75.79
7157;BME280;3620;49.862;8.758;2022-09-13T12:28:49;98735.19;;;24.07;77.19
7157;BME280;3620;49.862;8.758;2022-09-13T12:31:21;98731.69;;;24.15;78.12
7157;BME280;3620;49.862;8.758;2022-09-13T12:33:48;98730.66;;;24.32;76.96
7157;BME280;3620;49.862;8.758;2022-09-13T12:36:34;98714.03;;;24.28;76.36
7157;BME280;3620;49.862;8.758;2022-09-13T12:39:17;98709.00;;;24.25;76.99
7157;BME280;3620;49.862;8.758;2022-09-13T12:42:03;98721.25;;;24.36;77.12
7157;BME280;3620;49.862;8.758;2022-09-13T12:44:59;98729.84;;;24.39;76.50
7157;BME280;3620;49.862;8.758;2022-09-13T12:47:43;98732.19;;;24.10;78.09
7157;BME280;3620;49.862;8.758;2022-09-13T12:50:28;98740.53;;;23.99;78.61
7157;BME280;3620;49.862;8.758;2022-09-13T12:53:11;98730.94;;;23.88;79.08
7157;BME280;3620;49.862;8.758;2022-09-13T12:59:24;98722.34;;;23.69;80.32
7157;BME280;3620;49.862;8.758;2022-09-13T13:02:00;98730.09;;;23.80;80.52
7157;BME280;3620;49.862;8.758;2022-09-13T13:04:29;98730.09;;;23.96;80.19
7157;BME280;3620;49.862;8.758;2022-09-13T13:06:59;98724.13;;;24.10;78.60
7157;BME280;3620;49.862;8.758;2022-09-13T13:09:35;98725.47;;;24.22;77.90
7157;BME280;3620;49.862;8.758;2022-09-13T13:12:05;98714.03;;;24.28;77.66
7157;BME280;3620;49.862;8.758;2022-09-13T13:14:46;98709.69;;;24.35;78.12
7157;BME280;3620;49.862;8.758;2022-09-13T13:17:40;98710.84;;;24.49;77.44
7157;BME280;3620;49.862;8.758;2022-09-13T13:20:46;98710.94;;;24.71;76.82
7157;BME280;3620;49.862;8.758;2022-09-13T13:23:29;98704.88;;;24.94;75.41
7157;BME280;3620;49.862;8.758;2022-09-13T13:26:04;98701.13;;;25.03;75.53
7157;BME280;3620;49.862;8.758;2022-09-13T13:28:53;98716.91;;;25.14;73.20
7157;BME280;3620;49.862;8.758;2022-09-13T13:32:03;98713.88;;;25.17;73.67
7157;BME280;3620;49.862;8.758;2022-09-13T13:34:38;98713.50;;;25.28;73.39
7157;BME280;3620;49.862;8.758;2022-09-13T13:37:25;98704.75;;;25.26;72.07
7157;BME280;3620;49.862;8.758;2022-09-13T13:40:23;98705.81;;;25.17;72.19
7157;BME280;3620;49.862;8.758;2022-09-13T13:48:43;98691.13;;;24.81;74.27
7157;BME280;3620;49.862;8.758;2022-09-13T13:51:24;98690.13;;;24.65;74.64
7157;BME280;3620;49.862;8.758;2022-09-13T13:53:58;98682.38;;;24.62;74.31
7157;BME280;3620;49.862;8.758;2022-09-13T13:56:33;98683.41;;;24.61;74.97
7157;BME280;3620;49.862;8.758;2022-09-13T13:59:13;98676.63;;;24.73;75.13
7157;BME280;3620;49.862;8.758;2022-09-13T14:01:44;98669.22;;;24.92;75.42
7157;BME280;3620;49.862;8.758;2022-09-13T14:04:45;98663.16;;;24.98;76.18
7157;BME280;3620;49.862;8.758;2022-09-13T14:10:31;98667.84;;;24.96;77.83
7157;BME280;3620;49.862;8.758;2022-09-13T14:13:18;98667.84;;;25.04;77.96
7157;BME280;3620;49.862;8.758;2022-09-13T14:15:54;98660.09;;;25.01;77.83